Time;durP1;ratioP1;P1;durP2;ratioP2;P2;SDS_P1;SDS_P2;PMS_P1;PMS_P2;Temp;Humidity;BMP_temperature;BMP_pressure;BME280_temperature;BME280_humidity;BME280_pressure;Samples;Min_cycle;Max_cycle;Signal;HPM_P1;HPM_P2
2022/11/24 00:05:30;;;;;;;5.18;1.33;;;;;;;;;;20913175;28;20092;-63
2022/11/24 00:15:33;;;;;;;4.30;1.17;;;;;;;;;;20912772;28;20060;-60
2022/11/24 00:25:35;;;;;;;5.75;1.70;;;;;;;;;;20911832;28;20057;-62
2022/11/24 00:35:38;;;;;;;3.60;0.85;;;;;;;;;;20914794;28;20111;-63
2022/11/24 00:45:41;;;;;;;3.35;1.60;;;;;;;;;;20924355;28;20088;-62
2022/11/24 00:55:43;;;;;;;3.30;1.02;;;;;;;;;;20927723;28;20051;-60
2022/11/24 01:05:45;;;;;;;4.97;1.25;;;;;;;;;;20927808;28;20053;-60
2022/11/24 01:15:47;;;;;;;8.05;1.50;;;;;;;;;;20925390;28;20045;-61
2022/11/24 01:25:50;;;;;;;3.63;0.95;;;;;;;;;;20926325;28;20114;-60
2022/11/24 01:35:52;;;;;;;7.20;1.70;;;;;;;;;;20924572;28;20511;-60
2022/11/24 01:45:54;;;;;;;5.95;1.20;;;;;;;;;;20924258;28;20072;-60
2022/11/24 01:55:57;;;;;;;5.85;1.48;;;;;;;;;;20921647;28;20045;-61
2022/11/24 02:06:09;;;;;;;5.55;1.48;;;;;;;;;;20921617;28;20060;-60
2022/11/24 02:16:12;;;;;;;7.85;1.15;;;;;;;;;;20921413;28;20412;-59
2022/11/24 02:26:26;;;;;;;4.82;0.90;;;;;;;;;;20919850;28;20049;-58
2022/11/24 02:36:32;;;;;;;4.68;1.17;;;;;;;;;;20919348;28;20504;-60
2022/11/24 02:46:35;;;;;;;6.40;1.48;;;;;;;;;;20918809;28;20049;-60
2022/11/24 02:56:41;;;;;;;8.65;1.30;;;;;;;;;;20918738;28;20063;-59
2022/11/24 03:06:46;;;;;;;6.90;2.00;;;;;;;;;;20917549;28;20412;-60
2022/11/24 03:16:53;;;;;;;5.88;1.48;;;;;;;;;;20916914;28;20045;-60
2022/11/24 03:27:00;;;;;;;8.52;2.08;;;;;;;;;;20915550;28;20060;-60
2022/11/24 03:37:05;;;;;;;9.60;1.48;;;;;;;;;;20915841;28;20202;-61
2022/11/24 03:47:11;;;;;;;10.90;2.35;;;;;;;;;;20914037;28;20060;-61
2022/11/24 03:57:15;;;;;;;10.43;2.20;;;;;;;;;;20913307;28;20066;-59
2022/11/24 04:07:19;;;;;;;13.30;2.20;;;;;;;;;;20913448;28;20053;-59
2022/11/24 04:17:25;;;;;;;10.57;1.95;;;;;;;;;;20912662;28;20055;-60
2022/11/24 04:27:35;;;;;;;9.95;2.72;;;;;;;;;;20912545;28;20122;-61
2022/11/24 04:37:37;;;;;;;10.65;2.97;;;;;;;;;;20911820;28;20044;-61
2022/11/24 04:47:40;;;;;;;18.95;3.10;;;;;;;;;;20911979;28;20049;-62
2022/11/24 04:57:42;;;;;;;11.80;2.58;;;;;;;;;;20911343;28;20041;-61
2022/11/24 05:07:44;;;;;;;18.48;3.22;;;;;;;;;;20911215;28;20412;-63
2022/11/24 05:17:47;;;;;;;11.00;3.15;;;;;;;;;;20910812;28;20049;-60
2022/11/24 05:27:49;;;;;;;19.10;3.80;;;;;;;;;;20913822;28;20049;-60
2022/11/24 05:37:51;;;;;;;22.42;3.95;;;;;;;;;;20924124;28;20045;-59
2022/11/24 05:47:53;;;;;;;14.90;3.25;;;;;;;;;;20924102;28;20520;-60
2022/11/24 05:58:03;;;;;;;16.40;3.50;;;;;;;;;;20923510;28;20484;-59
2022/11/24 06:08:05;;;;;;;;;;;;;;;;;;20922697;28;20088;-61
2022/11/24 06:18:07;;;;;;;17.58;3.25;;;;;;;;;;20921588;28;19935;-60
2022/11/24 06:28:10;;;;;;;13.00;2.72;;;;;;;;;;20920371;28;20140;-60
2022/11/24 06:38:12;;;;;;;19.70;3.30;;;;;;;;;;20920201;28;20056;-60
2022/11/24 06:48:13;;;;;;;16.30;3.03;;;;;;;;;;20918532;28;20132;-60
2022/11/24 06:58:16;;;;;;;12.87;2.93;;;;;;;;;;20917774;28;20045;-61
2022/11/24 07:08:18;;;;;;;19.08;4.07;;;;;;;;;;20917982;28;20291;-60
2022/11/24 07:18:20;;;;;;;15.50;4.03;;;;;;;;;;20916871;28;20485;-60
2022/11/24 07:28:24;;;;;;;18.52;3.83;;;;;;;;;;20915909;28;20493;-60
2022/11/24 07:38:26;;;;;;;17.15;3.33;;;;;;;;;;20914472;28;20045;-60
2022/11/24 07:48:28;;;;;;;17.60;3.75;;;;;;;;;;20912821;28;20099;-61
2022/11/24 07:58:31;;;;;;;18.08;4.38;;;;;;;;;;20913714;28;20048;-60
2022/11/24 08:08:34;;;;;;;20.83;4.00;;;;;;;;;;20912425;28;20049;-60
2022/11/24 08:18:36;;;;;;;18.60;4.43;;;;;;;;;;20913118;28;20049;-60
2022/11/24 08:28:38;;;;;;;14.50;4.35;;;;;;;;;;20912525;28;20049;-61
2022/11/24 08:38:40;;;;;;;23.13;4.90;;;;;;;;;;20912162;28;20059;-61
2022/11/24 08:48:42;;;;;;;27.40;5.55;;;;;;;;;;20912641;28;20052;-61
2022/11/24 08:58:44;;;;;;;20.10;4.57;;;;;;;;;;20911981;28;20144;-63
2022/11/24 09:08:46;;;;;;;23.40;5.07;;;;;;;;;;20926377;28;20053;-61
2022/11/24 09:18:54;;;;;;;21.63;4.30;;;;;;;;;;20925992;28;20048;-61
2022/11/24 09:28:56;;;;;;;21.35;5.68;;;;;;;;;;20924275;28;20154;-62
2022/11/24 09:39:00;;;;;;;27.35;5.97;;;;;;;;;;20923004;28;20107;-59
2022/11/24 09:49:03;;;;;;;31.55;7.53;;;;;;;;;;20922809;28;20119;-61
2022/11/24 09:59:19;;;;;;;28.95;7.20;;;;;;;;;;20921011;28;20401;-60
2022/11/24 10:09:40;;;;;;;30.25;8.38;;;;;;;;;;20920248;28;20055;-60
2022/11/24 10:20:00;;;;;;;34.50;10.55;;;;;;;;;;20918790;28;20053;-60
2022/11/24 10:30:11;;;;;;;17.48;5.40;;;;;;;;;;20920031;28;20179;-71
2022/11/24 10:40:16;;;;;;;17.40;5.15;;;;;;;;;;20921461;28;20131;-75
2022/11/24 10:50:23;;;;;;;15.63;5.28;;;;;;;;;;20919098;28;20097;-72
2022/11/24 11:00:25;;;;;;;18.30;4.10;;;;;;;;;;20918293;28;20558;-65
2022/11/24 11:10:27;;;;;;;19.67;4.65;;;;;;;;;;20916780;28;20147;-59
2022/11/24 11:20:31;;;;;;;13.13;3.40;;;;;;;;;;20913996;28;20133;-60
2022/11/24 11:30:33;;;;;;;17.08;3.00;;;;;;;;;;20966071;28;20093;-61
2022/11/24 11:40:36;;;;;;;13.02;2.83;;;;;;;;;;20996297;28;20059;-61
2022/11/24 11:50:39;;;;;;;15.40;2.92;;;;;;;;;;20996064;28;20409;-67
2022/11/24 12:00:46;;;;;;;16.15;2.88;;;;;;;;;;20995293;28;20065;-63
2022/11/24 12:10:58;;;;;;;12.70;2.78;;;;;;;;;;20996434;28;20416;-63
2022/11/24 12:21:17;;;;;;;7.50;2.42;;;;;;;;;;20995294;28;20094;-61
2022/11/24 12:31:46;;;;;;;15.20;6.15;;;;;;;;;;20995185;28;20060;-60
2022/11/24 12:41:48;;;;;;;9.52;3.53;;;;;;;;;;21007946;28;20075;-58
2022/11/24 12:52:03;;;;;;;11.15;4.50;;;;;;;;;;21010036;28;20149;-59
2022/11/24 13:02:24;;;;;;;8.75;4.03;;;;;;;;;;20991618;28;20098;-58
2022/11/24 13:12:26;;;;;;;8.80;2.33;;;;;;;;;;21009588;28;20518;-58
2022/11/24 13:22:28;;;;;;;6.78;2.90;;;;;;;;;;21008107;28;20055;-58
2022/11/24 13:32:31;;;;;;;13.15;3.85;;;;;;;;;;21007073;28;20067;-58
2022/11/24 13:42:53;;;;;;;8.82;2.80;;;;;;;;;;21007271;28;20049;-58
2022/11/24 13:53:07;;;;;;;6.90;3.10;;;;;;;;;;21004921;28;20101;-57
2022/11/24 14:03:18;;;;;;;8.05;2.65;;;;;;;;;;21004798;28;20063;-58
2022/11/24 14:13:23;;;;;;;9.20;2.80;;;;;;;;;;21004987;28;20040;-57
2022/11/24 14:23:26;;;;;;;10.32;4.90;;;;;;;;;;21003420;28;20048;-58
2022/11/24 14:33:28;;;;;;;13.93;3.50;;;;;;;;;;21002961;28;20097;-58
2022/11/24 14:43:31;;;;;;;12.45;4.57;;;;;;;;;;21002357;28;20052;-57
2022/11/24 14:53:34;;;;;;;13.45;4.93;;;;;;;;;;20984445;28;20041;-58
2022/11/24 15:03:36;;;;;;;15.57;4.60;;;;;;;;;;20999271;28;20056;-59
2022/11/24 15:13:38;;;;;;;9.63;3.33;;;;;;;;;;20999254;28;20044;-59
2022/11/24 15:23:40;;;;;;;5.57;2.35;;;;;;;;;;20998978;28;20511;-58
2022/11/24 15:33:42;;;;;;;8.70;2.55;;;;;;;;;;20979517;28;20402;-58
2022/11/24 15:43:44;;;;;;;7.80;2.28;;;;;;;;;;20996776;28;20098;-58
2022/11/24 15:53:51;;;;;;;5.90;1.90;;;;;;;;;;20997665;28;20072;-57
2022/11/24 16:03:52;;;;;;;6.32;1.80;;;;;;;;;;20977781;28;20049;-59
2022/11/24 16:13:54;;;;;;;7.10;2.13;;;;;;;;;;20995548;28;20500;-57
2022/11/24 16:23:55;;;;;;;3.95;1.25;;;;;;;;;;20995837;28;20080;-60
2022/11/24 16:33:57;;;;;;;5.65;1.45;;;;;;;;;;20977296;28;20088;-57
2022/11/24 16:43:59;;;;;;;2.92;1.33;;;;;;;;;;20995728;28;20135;-58
2022/11/24 16:54:02;;;;;;;6.82;1.90;;;;;;;;;;20994658;28;20045;-56
2022/11/24 17:04:04;;;;;;;2.70;1.13;;;;;;;;;;20994305;28;20204;-60
2022/11/24 17:14:05;;;;;;;5.53;1.58;;;;;;;;;;20991325;28;20041;-62
2022/11/24 17:24:13;;;;;;;6.43;2.28;;;;;;;;;;20997020;28;20489;-62
2022/11/24 17:34:15;;;;;;;6.35;2.00;;;;;;;;;;20921458;28;20134;-61
2022/11/24 17:44:17;;;;;;;6.57;2.15;;;;;;;;;;20922868;28;20126;-62
2022/11/24 17:54:19;;;;;;;6.57;2.25;;;;;;;;;;20922778;28;20198;-64
2022/11/24 18:04:20;;;;;;;6.57;2.00;;;;;;;;;;20920568;28;20493;-62
2022/11/24 18:14:22;;;;;;;5.18;2.00;;;;;;;;;;20908054;28;20049;-64
2022/11/24 18:24:24;;;;;;;8.40;2.00;;;;;;;;;;20902967;28;20420;-63
2022/11/24 18:34:26;;;;;;;5.20;2.13;;;;;;;;;;20983551;28;20049;-62
2022/11/24 18:44:27;;;;;;;7.22;1.95;;;;;;;;;;20980354;28;20056;-60
2022/11/24 18:54:29;;;;;;;6.40;1.90;;;;;;;;;;20984516;28;20051;-67
2022/11/24 19:04:31;;;;;;;5.53;1.55;;;;;;;;;;20987041;28;20485;-64
2022/11/24 19:14:33;;;;;;;4.50;1.90;;;;;;;;;;20988326;28;20086;-61
2022/11/24 19:24:34;;;;;;;3.88;1.45;;;;;;;;;;20982024;28;20400;-65
2022/11/24 19:34:37;;;;;;;5.22;2.00;;;;;;;;;;20996754;28;20048;-67
2022/11/24 19:44:39;;;;;;;6.85;2.15;;;;;;;;;;20995476;28;20052;-60
2022/11/24 19:54:41;;;;;;;9.88;2.80;;;;;;;;;;20996181;28;20084;-63
2022/11/24 20:04:43;;;;;;;7.88;2.53;;;;;;;;;;20995493;28;20048;-58
2022/11/24 20:14:45;;;;;;;7.45;3.20;;;;;;;;;;20995320;28;20055;-60
2022/11/24 20:24:46;;;;;;;4.22;2.05;;;;;;;;;;20995201;28;20060;-57
2022/11/24 20:34:48;;;;;;;2.65;0.95;;;;;;;;;;20995824;28;20499;-57
2022/11/24 20:44:50;;;;;;;3.20;2.00;;;;;;;;;;20995311;28;20080;-61
2022/11/24 20:54:51;;;;;;;3.33;1.52;;;;;;;;;;20976083;28;20048;-61
2022/11/24 21:04:53;;;;;;;4.25;1.85;;;;;;;;;;21009895;28;20053;-57
2022/11/24 21:14:55;;;;;;;1.75;1.08;;;;;;;;;;21009243;28;20485;-62
2022/11/24 21:24:57;;;;;;;3.08;1.30;;;;;;;;;;21008096;28;20053;-60
2022/11/24 21:34:59;;;;;;;3.95;1.17;;;;;;;;;;21007555;28;20060;-63
2022/11/24 21:45:01;;;;;;;5.18;2.03;;;;;;;;;;20988638;28;20091;-69
2022/11/24 21:55:04;;;;;;;2.05;0.60;;;;;;;;;;21007101;28;20045;-62
2022/11/24 22:05:06;;;;;;;1.25;0.60;;;;;;;;;;21005360;28;20052;-60
2022/11/24 22:15:09;;;;;;;2.42;0.93;;;;;;;;;;21004486;28;20056;-59
2022/11/24 22:25:12;;;;;;;2.33;1.27;;;;;;;;;;21003380;28;20086;-60
2022/11/24 22:35:14;;;;;;;2.70;1.15;;;;;;;;;;21003086;28;20075;-61
2022/11/24 22:45:15;;;;;;;1.80;0.80;;;;;;;;;;21002873;28;20049;-65
2022/11/24 22:55:18;;;;;;;2.40;1.17;;;;;;;;;;21001275;28;20080;-59
2022/11/24 23:05:19;;;;;;;1.42;0.73;;;;;;;;;;21000494;28;20144;-64
2022/11/24 23:15:21;;;;;;;3.15;0.77;;;;;;;;;;21000374;28;20142;-62
2022/11/24 23:25:23;;;;;;;2.22;0.60;;;;;;;;;;20998927;28;20056;-59
2022/11/24 23:35:25;;;;;;;0.90;0.40;;;;;;;;;;20980579;28;20044;-60
2022/11/24 23:45:26;;;;;;;2.45;0.60;;;;;;;;;;20997314;28;20390;-59
2022/11/24 23:55:28;;;;;;;0.80;0.40;;;;;;;;;;20997047;28;20044;-61
